Costa, West Virginia
Current Conditions -  °F | °C
As of 11:54 AM on Sunday 23 Nov 2014 (Local Time) from KCRW Reporting Station
Broken Clouds Broken Clouds  
Wind Chill: 63°   Ceiling: 15000
Heat Index: 63°   Visibility: 10mi
Dew Point: 37°   Wind: 10mph
Humidity: 38%   Direction: 150°SSE
Pressure: 29.97"   Gusts: NA
Location:  38.16°N, 81.72°W
Report Text: KCRW 231654Z COR 15009KT 10SM FEW055 BKN150 BKN300 17/03 A2997 RMK AO2 SLP146 BKN150 V SCT T01720028
Loading
Personal Weather Stations






























Interactive Weather Map New forecast layout! Learn more

10-Day Weather Forecast

Advertisements
Track Severe Weather on mobile